sensor_id;sensor_type;location;lat;lon;timestamp;temperature;humidity
74081;SHT31;62438;52.228;6.864;2023-04-08T00:01:07;4.62;87.32
74081;SHT31;62438;52.228;6.864;2023-04-08T00:03:08;4.76;85.54
74081;SHT31;62438;52.228;6.864;2023-04-08T00:05:08;4.68;85.49
74081;SHT31;62438;52.228;6.864;2023-04-08T00:07:09;4.65;85.77
74081;SHT31;62438;52.228;6.864;2023-04-08T00:09:09;4.62;85.87
74081;SHT31;62438;52.228;6.864;2023-04-08T00:11:10;4.80;84.09
74081;SHT31;62438;52.228;6.864;2023-04-08T00:13:10;4.87;83.66
74081;SHT31;62438;52.228;6.864;2023-04-08T00:15:11;4.68;85.78
74081;SHT31;62438;52.228;6.864;2023-04-08T00:17:11;4.59;85.66
74081;SHT31;62438;52.228;6.864;2023-04-08T00:19:14;4.62;84.34
74081;SHT31;62438;52.228;6.864;2023-04-08T00:21:15;4.73;83.81
74081;SHT31;62438;52.228;6.864;2023-04-08T00:23:19;4.62;84.57
74081;SHT31;62438;52.228;6.864;2023-04-08T00:25:20;4.63;84.77
74081;SHT31;62438;52.228;6.864;2023-04-08T00:27:21;4.51;85.27
74081;SHT31;62438;52.228;6.864;2023-04-08T00:29:21;4.63;83.90
74081;SHT31;62438;52.228;6.864;2023-04-08T00:31:22;4.48;85.79
74081;SHT31;62438;52.228;6.864;2023-04-08T00:33:22;4.42;85.96
74081;SHT31;62438;52.228;6.864;2023-04-08T00:35:26;4.34;86.55
74081;SHT31;62438;52.228;6.864;2023-04-08T00:37:26;4.31;86.61
74081;SHT31;62438;52.228;6.864;2023-04-08T00:39:27;4.35;85.56
74081;SHT31;62438;52.228;6.864;2023-04-08T00:41:27;4.44;85.00
74081;SHT31;62438;52.228;6.864;2023-04-08T00:43:27;4.38;85.02
74081;SHT31;62438;52.228;6.864;2023-04-08T00:45:28;4.41;84.55
74081;SHT31;62438;52.228;6.864;2023-04-08T00:47:28;4.40;84.97
74081;SHT31;62438;52.228;6.864;2023-04-08T00:49:32;4.22;86.54
74081;SHT31;62438;52.228;6.864;2023-04-08T00:51:33;4.20;85.81
74081;SHT31;62438;52.228;6.864;2023-04-08T00:53:35;4.01;87.49
74081;SHT31;62438;52.228;6.864;2023-04-08T00:55:36;4.00;86.95
74081;SHT31;62438;52.228;6.864;2023-04-08T00:57:36;3.94;87.36
74081;SHT31;62438;52.228;6.864;2023-04-08T00:59:37;3.79;87.91
74081;SHT31;62438;52.228;6.864;2023-04-08T01:04:43;3.93;86.55
74081;SHT31;62438;52.228;6.864;2023-04-08T01:07:02;3.95;86.93
74081;SHT31;62438;52.228;6.864;2023-04-08T01:09:05;3.82;87.65
74081;SHT31;62438;52.228;6.864;2023-04-08T01:11:10;3.84;88.25
74081;SHT31;62438;52.228;6.864;2023-04-08T01:13:13;3.95;87.24
74081;SHT31;62438;52.228;6.864;2023-04-08T01:15:16;3.84;87.00
74081;SHT31;62438;52.228;6.864;2023-04-08T01:17:18;3.73;87.85
74081;SHT31;62438;52.228;6.864;2023-04-08T01:19:29;3.69;88.20
74081;SHT31;62438;52.228;6.864;2023-04-08T01:21:30;3.56;88.73
74081;SHT31;62438;52.228;6.864;2023-04-08T01:24:00;3.43;89.64
74081;SHT31;62438;52.228;6.864;2023-04-08T01:26:03;3.29;89.80
74081;SHT31;62438;52.228;6.864;2023-04-08T01:28:10;3.15;91.40
74081;SHT31;62438;52.228;6.864;2023-04-08T01:30:13;3.19;90.56
74081;SHT31;62438;52.228;6.864;2023-04-08T01:32:14;3.08;90.98
74081;SHT31;62438;52.228;6.864;2023-04-08T01:34:17;2.95;91.47
74081;SHT31;62438;52.228;6.864;2023-04-08T01:36:22;2.85;91.43
74081;SHT31;62438;52.228;6.864;2023-04-08T01:38:24;2.98;91.59
74081;SHT31;62438;52.228;6.864;2023-04-08T01:40:26;2.93;91.34
74081;SHT31;62438;52.228;6.864;2023-04-08T01:42:27;2.87;91.08
74081;SHT31;62438;52.228;6.864;2023-04-08T01:44:28;3.03;91.61
74081;SHT31;62438;52.228;6.864;2023-04-08T01:46:30;2.90;91.57
74081;SHT31;62438;52.228;6.864;2023-04-08T01:48:32;2.90;91.49
74081;SHT31;62438;52.228;6.864;2023-04-08T01:50:33;2.91;91.71
74081;SHT31;62438;52.228;6.864;2023-04-08T01:52:36;2.68;92.68
74081;SHT31;62438;52.228;6.864;2023-04-08T01:54:37;2.58;92.71
74081;SHT31;62438;52.228;6.864;2023-04-08T01:56:40;2.47;93.21
74081;SHT31;62438;52.228;6.864;2023-04-08T01:58:45;2.45;94.22
74081;SHT31;62438;52.228;6.864;2023-04-08T02:00:46;2.33;94.37
74081;SHT31;62438;52.228;6.864;2023-04-08T02:02:48;2.29;94.41
74081;SHT31;62438;52.228;6.864;2023-04-08T02:04:49;2.28;94.79
74081;SHT31;62438;52.228;6.864;2023-04-08T02:06:49;2.24;94.47
74081;SHT31;62438;52.228;6.864;2023-04-08T02:08:50;2.15;94.54
74081;SHT31;62438;52.228;6.864;2023-04-08T02:10:50;2.06;95.19
74081;SHT31;62438;52.228;6.864;2023-04-08T02:12:50;2.02;95.82
74081;SHT31;62438;52.228;6.864;2023-04-08T02:14:52;1.95;96.69
74081;SHT31;62438;52.228;6.864;2023-04-08T02:16:55;1.93;96.46
74081;SHT31;62438;52.228;6.864;2023-04-08T02:19:13;1.97;96.38
74081;SHT31;62438;52.228;6.864;2023-04-08T02:21:17;1.95;95.97
74081;SHT31;62438;52.228;6.864;2023-04-08T02:23:21;1.88;96.50
74081;SHT31;62438;52.228;6.864;2023-04-08T02:25:24;1.77;97.17
74081;SHT31;62438;52.228;6.864;2023-04-08T02:27:26;1.71;97.04
74081;SHT31;62438;52.228;6.864;2023-04-08T02:29:30;1.68;97.25
74081;SHT31;62438;52.228;6.864;2023-04-08T02:31:31;1.61;97.31
74081;SHT31;62438;52.228;6.864;2023-04-08T02:33:33;1.67;97.47
74081;SHT31;62438;52.228;6.864;2023-04-08T02:35:35;1.61;98.04
74081;SHT31;62438;52.228;6.864;2023-04-08T02:37:36;1.51;97.97
74081;SHT31;62438;52.228;6.864;2023-04-08T02:39:36;1.48;98.89
74081;SHT31;62438;52.228;6.864;2023-04-08T02:41:36;1.43;98.51
74081;SHT31;62438;52.228;6.864;2023-04-08T02:43:37;1.40;98.48
74081;SHT31;62438;52.228;6.864;2023-04-08T02:45:40;1.30;99.19
74081;SHT31;62438;52.228;6.864;2023-04-08T02:47:41;1.26;99.11
74081;SHT31;62438;52.228;6.864;2023-04-08T02:49:41;1.23;99.31
74081;SHT31;62438;52.228;6.864;2023-04-08T02:51:42;1.27;99.61
74081;SHT31;62438;52.228;6.864;2023-04-08T02:53:42;1.29;99.45
74081;SHT31;62438;52.228;6.864;2023-04-08T02:55:43;1.26;99.44
74081;SHT31;62438;52.228;6.864;2023-04-08T02:57:45;1.18;99.38
74081;SHT31;62438;52.228;6.864;2023-04-08T02:59:48;1.16;99.69
74081;SHT31;62438;52.228;6.864;2023-04-08T03:01:49;1.25;99.25
74081;SHT31;62438;52.228;6.864;2023-04-08T03:03:50;1.18;99.40
74081;SHT31;62438;52.228;6.864;2023-04-08T03:05:50;1.16;99.46
74081;SHT31;62438;52.228;6.864;2023-04-08T03:07:51;1.25;99.05
74081;SHT31;62438;52.228;6.864;2023-04-08T03:09:54;1.20;99.11
74081;SHT31;62438;52.228;6.864;2023-04-08T03:11:55;1.35;98.53
74081;SHT31;62438;52.228;6.864;2023-04-08T03:13:55;1.32;98.59
74081;SHT31;62438;52.228;6.864;2023-04-08T03:15:56;1.26;98.77
74081;SHT31;62438;52.228;6.864;2023-04-08T03:17:56;1.20;98.89
74081;SHT31;62438;52.228;6.864;2023-04-08T03:19:57;1.15;99.45
74081;SHT31;62438;52.228;6.864;2023-04-08T03:21:57;1.10;99.28
74081;SHT31;62438;52.228;6.864;2023-04-08T03:23:58;1.09;99.57
74081;SHT31;62438;52.228;6.864;2023-04-08T03:25:58;1.03;99.99
74081;SHT31;62438;52.228;6.864;2023-04-08T03:27:59;0.99;99.98
74081;SHT31;62438;52.228;6.864;2023-04-08T03:29:59;1.03;99.99
74081;SHT31;62438;52.228;6.864;2023-04-08T03:32:00;1.02;99.99
74081;SHT31;62438;52.228;6.864;2023-04-08T03:34:00;0.89;99.99
74081;SHT31;62438;52.228;6.864;2023-04-08T03:36:01;0.89;99.99
74081;SHT31;62438;52.228;6.864;2023-04-08T03:38:01;0.91;99.99
74081;SHT31;62438;52.228;6.864;2023-04-08T03:40:05;0.82;99.99
74081;SHT31;62438;52.228;6.864;2023-04-08T03:42:06;0.87;99.99
74081;SHT31;62438;52.228;6.864;2023-04-08T03:44:06;0.84;99.99
74081;SHT31;62438;52.228;6.864;2023-04-08T03:46:06;0.84;99.99
74081;SHT31;62438;52.228;6.864;2023-04-08T03:48:07;0.87;99.99
74081;SHT31;62438;52.228;6.864;2023-04-08T03:50:08;0.79;99.99
74081;SHT31;62438;52.228;6.864;2023-04-08T03:52:09;0.75;99.99
74081;SHT31;62438;52.228;6.864;2023-04-08T03:54:09;0.77;99.99
74081;SHT31;62438;52.228;6.864;2023-04-08T03:56:10;0.74;99.99
74081;SHT31;62438;52.228;6.864;2023-04-08T03:58:10;0.75;99.99
74081;SHT31;62438;52.228;6.864;2023-04-08T04:00:11;0.81;99.99
74081;SHT31;62438;52.228;6.864;2023-04-08T04:02:12;0.69;99.99
74081;SHT31;62438;52.228;6.864;2023-04-08T04:04:12;0.71;99.99
74081;SHT31;62438;52.228;6.864;2023-04-08T04:06:13;0.68;99.99
74081;SHT31;62438;52.228;6.864;2023-04-08T04:08:14;0.67;99.99
74081;SHT31;62438;52.228;6.864;2023-04-08T04:10:14;0.69;99.99
74081;SHT31;62438;52.228;6.864;2023-04-08T04:12:15;0.87;99.99
74081;SHT31;62438;52.228;6.864;2023-04-08T04:14:15;0.87;99.99
74081;SHT31;62438;52.228;6.864;2023-04-08T04:16:18;0.84;99.99
74081;SHT31;62438;52.228;6.864;2023-04-08T04:18:18;0.95;99.99
74081;SHT31;62438;52.228;6.864;2023-04-08T04:20:19;1.00;99.99
74081;SHT31;62438;52.228;6.864;2023-04-08T04:22:20;1.05;99.99
74081;SHT31;62438;52.228;6.864;2023-04-08T04:24:21;1.16;99.99
74081;SHT31;62438;52.228;6.864;2023-04-08T04:26:21;1.33;99.99
74081;SHT31;62438;52.228;6.864;2023-04-08T04:28:22;1.51;99.99
74081;SHT31;62438;52.228;6.864;2023-04-08T04:30:23;1.56;99.99
74081;SHT31;62438;52.228;6.864;2023-04-08T04:32:23;1.68;99.99
74081;SHT31;62438;52.228;6.864;2023-04-08T04:34:23;1.84;99.99
74081;SHT31;62438;52.228;6.864;2023-04-08T04:36:24;1.89;99.99
74081;SHT31;62438;52.228;6.864;2023-04-08T04:38:24;1.94;99.99
74081;SHT31;62438;52.228;6.864;2023-04-08T04:40:26;2.02;99.75
74081;SHT31;62438;52.228;6.864;2023-04-08T04:42:26;2.09;99.40
74081;SHT31;62438;52.228;6.864;2023-04-08T04:44:27;2.19;99.02
74081;SHT31;62438;52.228;6.864;2023-04-08T04:46:27;2.25;98.93
74081;SHT31;62438;52.228;6.864;2023-04-08T04:48:28;2.32;99.94
74081;SHT31;62438;52.228;6.864;2023-04-08T04:50:28;2.37;99.42
74081;SHT31;62438;52.228;6.864;2023-04-08T04:52:29;2.46;99.21
74081;SHT31;62438;52.228;6.864;2023-04-08T04:54:29;2.47;99.96
74081;SHT31;62438;52.228;6.864;2023-04-08T04:56:30;2.46;99.62
74081;SHT31;62438;52.228;6.864;2023-04-08T04:58:30;2.53;99.53
74081;SHT31;62438;52.228;6.864;2023-04-08T05:00:31;2.58;99.81
74081;SHT31;62438;52.228;6.864;2023-04-08T05:02:31;2.64;98.92
74081;SHT31;62438;52.228;6.864;2023-04-08T05:04:31;2.68;99.76
74081;SHT31;62438;52.228;6.864;2023-04-08T05:06:32;2.70;99.53
74081;SHT31;62438;52.228;6.864;2023-04-08T05:08:33;2.73;99.19
74081;SHT31;62438;52.228;6.864;2023-04-08T05:10:33;2.80;99.62
74081;SHT31;62438;52.228;6.864;2023-04-08T05:12:34;2.87;99.60
74081;SHT31;62438;52.228;6.864;2023-04-08T05:14:34;2.91;99.76
74081;SHT31;62438;52.228;6.864;2023-04-08T05:16:35;2.94;99.00
74081;SHT31;62438;52.228;6.864;2023-04-08T05:18:36;2.98;98.45
74081;SHT31;62438;52.228;6.864;2023-04-08T05:20:36;3.07;98.44
74081;SHT31;62438;52.228;6.864;2023-04-08T05:22:37;3.15;98.84
74081;SHT31;62438;52.228;6.864;2023-04-08T05:24:37;3.21;98.63
74081;SHT31;62438;52.228;6.864;2023-04-08T05:26:38;3.28;98.20
74081;SHT31;62438;52.228;6.864;2023-04-08T05:28:38;3.38;97.57
74081;SHT31;62438;52.228;6.864;2023-04-08T05:30:39;3.46;97.13
74081;SHT31;62438;52.228;6.864;2023-04-08T05:32:39;3.55;98.25
74081;SHT31;62438;52.228;6.864;2023-04-08T05:34:40;3.62;97.28
74081;SHT31;62438;52.228;6.864;2023-04-08T05:36:40;3.66;98.37
74081;SHT31;62438;52.228;6.864;2023-04-08T05:38:41;3.69;96.95
74081;SHT31;62438;52.228;6.864;2023-04-08T05:40:43;3.70;95.77
74081;SHT31;62438;52.228;6.864;2023-04-08T05:42:43;3.73;95.23
74081;SHT31;62438;52.228;6.864;2023-04-08T05:44:44;3.76;94.85
74081;SHT31;62438;52.228;6.864;2023-04-08T05:46:45;3.77;94.94
74081;SHT31;62438;52.228;6.864;2023-04-08T05:48:45;3.73;93.57
74081;SHT31;62438;52.228;6.864;2023-04-08T05:50:46;3.69;93.63
74081;SHT31;62438;52.228;6.864;2023-04-08T05:52:47;3.66;94.24
74081;SHT31;62438;52.228;6.864;2023-04-08T05:54:48;3.60;95.27
74081;SHT31;62438;52.228;6.864;2023-04-08T05:56:48;3.62;94.71
74081;SHT31;62438;52.228;6.864;2023-04-08T05:58:48;3.73;94.61
74081;SHT31;62438;52.228;6.864;2023-04-08T06:00:49;3.84;94.13
74081;SHT31;62438;52.228;6.864;2023-04-08T06:02:49;3.95;95.02
74081;SHT31;62438;52.228;6.864;2023-04-08T06:04:50;4.01;94.39
74081;SHT31;62438;52.228;6.864;2023-04-08T06:06:50;4.01;92.92
74081;SHT31;62438;52.228;6.864;2023-04-08T06:08:51;4.01;93.37
74081;SHT31;62438;52.228;6.864;2023-04-08T06:10:51;3.98;93.55
74081;SHT31;62438;52.228;6.864;2023-04-08T06:12:51;3.98;94.02
74081;SHT31;62438;52.228;6.864;2023-04-08T06:14:53;4.00;94.57
74081;SHT31;62438;52.228;6.864;2023-04-08T06:16:54;4.03;94.77
74081;SHT31;62438;52.228;6.864;2023-04-08T06:18:56;4.03;94.92
74081;SHT31;62438;52.228;6.864;2023-04-08T06:20:56;4.03;93.57
74081;SHT31;62438;52.228;6.864;2023-04-08T06:22:58;4.08;94.46
74081;SHT31;62438;52.228;6.864;2023-04-08T06:24:59;4.20;92.99
74081;SHT31;62438;52.228;6.864;2023-04-08T06:26:59;4.17;93.11
74081;SHT31;62438;52.228;6.864;2023-04-08T06:29:00;4.15;93.66
74081;SHT31;62438;52.228;6.864;2023-04-08T06:31:01;4.21;93.42
74081;SHT31;62438;52.228;6.864;2023-04-08T06:33:01;4.32;92.77
74081;SHT31;62438;52.228;6.864;2023-04-08T06:35:02;4.51;92.92
74081;SHT31;62438;52.228;6.864;2023-04-08T06:37:03;4.59;92.64
74081;SHT31;62438;52.228;6.864;2023-04-08T06:39:03;4.69;92.66
74081;SHT31;62438;52.228;6.864;2023-04-08T06:41:06;4.77;91.74
74081;SHT31;62438;52.228;6.864;2023-04-08T06:43:07;4.99;92.22
74081;SHT31;62438;52.228;6.864;2023-04-08T06:45:09;5.04;92.02
74081;SHT31;62438;52.228;6.864;2023-04-08T06:47:09;5.14;91.47
74081;SHT31;62438;52.228;6.864;2023-04-08T06:49:11;5.26;92.34
74081;SHT31;62438;52.228;6.864;2023-04-08T06:51:12;5.34;91.07
74081;SHT31;62438;52.228;6.864;2023-04-08T06:53:12;5.48;90.57
74081;SHT31;62438;52.228;6.864;2023-04-08T06:55:13;5.47;90.17
74081;SHT31;62438;52.228;6.864;2023-04-08T06:57:13;5.56;90.72
74081;SHT31;62438;52.228;6.864;2023-04-08T06:59:13;5.56;90.52
74081;SHT31;62438;52.228;6.864;2023-04-08T07:01:14;5.52;89.40
74081;SHT31;62438;52.228;6.864;2023-04-08T07:03:15;5.70;90.14
74081;SHT31;62438;52.228;6.864;2023-04-08T07:05:16;5.88;90.36
74081;SHT31;62438;52.228;6.864;2023-04-08T07:07:17;6.03;90.31
74081;SHT31;62438;52.228;6.864;2023-04-08T07:09:17;6.11;89.68
74081;SHT31;62438;52.228;6.864;2023-04-08T07:11:18;6.28;88.09
74081;SHT31;62438;52.228;6.864;2023-04-08T07:13:18;6.79;87.01
74081;SHT31;62438;52.228;6.864;2023-04-08T07:15:19;7.07;86.99
74081;SHT31;62438;52.228;6.864;2023-04-08T07:17:19;7.12;85.90
74081;SHT31;62438;52.228;6.864;2023-04-08T07:19:20;7.05;86.48
74081;SHT31;62438;52.228;6.864;2023-04-08T07:21:21;7.23;86.37
74081;SHT31;62438;52.228;6.864;2023-04-08T07:23:22;7.38;84.91
74081;SHT31;62438;52.228;6.864;2023-04-08T07:25:22;7.86;85.10
74081;SHT31;62438;52.228;6.864;2023-04-08T07:27:23;7.94;83.47
74081;SHT31;62438;52.228;6.864;2023-04-08T07:29:23;7.84;84.11
74081;SHT31;62438;52.228;6.864;2023-04-08T07:31:24;7.75;84.60
74081;SHT31;62438;52.228;6.864;2023-04-08T07:33:24;7.81;82.40
74081;SHT31;62438;52.228;6.864;2023-04-08T07:35:26;8.43;81.39
74081;SHT31;62438;52.228;6.864;2023-04-08T07:37:27;8.60;81.12
74081;SHT31;62438;52.228;6.864;2023-04-08T07:39:27;8.42;81.12
74081;SHT31;62438;52.228;6.864;2023-04-08T07:41:28;8.63;80.75
74081;SHT31;62438;52.228;6.864;2023-04-08T07:43:30;8.84;81.97
74081;SHT31;62438;52.228;6.864;2023-04-08T07:45:31;9.33;79.92
74081;SHT31;62438;52.228;6.864;2023-04-08T07:47:31;9.49;78.88
74081;SHT31;62438;52.228;6.864;2023-04-08T07:49:32;9.50;76.68
74081;SHT31;62438;52.228;6.864;2023-04-08T07:51:32;9.43;77.46
74081;SHT31;62438;52.228;6.864;2023-04-08T07:53:33;9.63;78.00
74081;SHT31;62438;52.228;6.864;2023-04-08T07:55:33;9.31;79.48
74081;SHT31;62438;52.228;6.864;2023-04-08T07:57:34;9.35;78.41
74081;SHT31;62438;52.228;6.864;2023-04-08T07:59:35;8.92;79.22
74081;SHT31;62438;52.228;6.864;2023-04-08T08:01:35;9.23;78.51
74081;SHT31;62438;52.228;6.864;2023-04-08T08:03:36;9.84;77.35
74081;SHT31;62438;52.228;6.864;2023-04-08T08:05:37;9.80;76.46
74081;SHT31;62438;52.228;6.864;2023-04-08T08:07:38;10.02;76.40
74081;SHT31;62438;52.228;6.864;2023-04-08T08:09:38;10.04;75.08
74081;SHT31;62438;52.228;6.864;2023-04-08T08:11:38;9.93;76.09
74081;SHT31;62438;52.228;6.864;2023-04-08T08:13:39;10.46;75.82
74081;SHT31;62438;52.228;6.864;2023-04-08T08:15:39;10.24;73.62
74081;SHT31;62438;52.228;6.864;2023-04-08T08:17:40;9.95;75.37
74081;SHT31;62438;52.228;6.864;2023-04-08T08:19:40;9.47;76.53
74081;SHT31;62438;52.228;6.864;2023-04-08T08:21:40;9.29;79.17
74081;SHT31;62438;52.228;6.864;2023-04-08T08:23:41;9.36;79.70
74081;SHT31;62438;52.228;6.864;2023-04-08T08:25:41;9.26;79.83
74081;SHT31;62438;52.228;6.864;2023-04-08T08:27:42;9.29;79.33
74081;SHT31;62438;52.228;6.864;2023-04-08T08:29:42;9.04;78.17
74081;SHT31;62438;52.228;6.864;2023-04-08T08:31:43;9.05;78.75
74081;SHT31;62438;52.228;6.864;2023-04-08T08:33:43;9.07;77.80
74081;SHT31;62438;52.228;6.864;2023-04-08T08:35:43;9.11;78.34
74081;SHT31;62438;52.228;6.864;2023-04-08T08:37:44;9.14;78.85
74081;SHT31;62438;52.228;6.864;2023-04-08T08:39:45;9.19;76.86
74081;SHT31;62438;52.228;6.864;2023-04-08T08:41:45;9.42;78.22
74081;SHT31;62438;52.228;6.864;2023-04-08T08:43:46;9.59;78.06
74081;SHT31;62438;52.228;6.864;2023-04-08T08:45:46;9.54;78.14
74081;SHT31;62438;52.228;6.864;2023-04-08T08:47:47;9.36;77.09
74081;SHT31;62438;52.228;6.864;2023-04-08T08:49:47;9.50;77.44
74081;SHT31;62438;52.228;6.864;2023-04-08T08:51:49;9.39;76.32
74081;SHT31;62438;52.228;6.864;2023-04-08T08:53:50;9.35;77.50
74081;SHT31;62438;52.228;6.864;2023-04-08T08:55:50;9.81;77.00
74081;SHT31;62438;52.228;6.864;2023-04-08T08:57:51;9.73;75.40
74081;SHT31;62438;52.228;6.864;2023-04-08T08:59:52;10.59;73.70
74081;SHT31;62438;52.228;6.864;2023-04-08T09:01:52;10.59;71.97
74081;SHT31;62438;52.228;6.864;2023-04-08T09:06:17;11.45;69.14
74081;SHT31;62438;52.228;6.864;2023-04-08T09:10:27;11.57;70.08
74081;SHT31;62438;52.228;6.864;2023-04-08T09:12:28;10.96;70.72
74081;SHT31;62438;52.228;6.864;2023-04-08T09:14:31;10.63;72.33
74081;SHT31;62438;52.228;6.864;2023-04-08T09:16:32;10.30;72.10
74081;SHT31;62438;52.228;6.864;2023-04-08T09:18:32;10.42;73.77
74081;SHT31;62438;52.228;6.864;2023-04-08T09:20:33;10.08;73.24
74081;SHT31;62438;52.228;6.864;2023-04-08T09:22:33;10.28;72.37
74081;SHT31;62438;52.228;6.864;2023-04-08T09:24:34;10.28;72.19
74081;SHT31;62438;52.228;6.864;2023-04-08T09:26:36;10.44;72.12
74081;SHT31;62438;52.228;6.864;2023-04-08T09:28:37;10.25;72.89
74081;SHT31;62438;52.228;6.864;2023-04-08T09:30:38;10.30;72.54
74081;SHT31;62438;52.228;6.864;2023-04-08T09:32:56;10.62;71.45
74081;SHT31;62438;52.228;6.864;2023-04-08T09:34:56;10.55;70.97
74081;SHT31;62438;52.228;6.864;2023-04-08T09:36:57;11.75;70.20
74081;SHT31;62438;52.228;6.864;2023-04-08T09:38:58;11.48;67.53
74081;SHT31;62438;52.228;6.864;2023-04-08T09:41:05;11.32;70.89
74081;SHT31;62438;52.228;6.864;2023-04-08T09:43:08;11.30;69.75
74081;SHT31;62438;52.228;6.864;2023-04-08T09:45:09;10.88;69.82
74081;SHT31;62438;52.228;6.864;2023-04-08T09:47:22;10.62;71.23
74081;SHT31;62438;52.228;6.864;2023-04-08T09:49:42;10.59;72.67
74081;SHT31;62438;52.228;6.864;2023-04-08T09:54:02;10.70;73.50
74081;SHT31;62438;52.228;6.864;2023-04-08T09:56:06;10.80;71.89
74081;SHT31;62438;52.228;6.864;2023-04-08T09:58:14;10.81;71.74
74081;SHT31;62438;52.228;6.864;2023-04-08T10:00:17;11.47;70.69
74081;SHT31;62438;52.228;6.864;2023-04-08T10:02:25;11.65;70.22
74081;SHT31;62438;52.228;6.864;2023-04-08T10:04:27;12.25;68.63
74081;SHT31;62438;52.228;6.864;2023-04-08T10:06:28;12.81;69.20
74081;SHT31;62438;52.228;6.864;2023-04-08T10:08:30;12.58;67.04
74081;SHT31;62438;52.228;6.864;2023-04-08T10:10:37;13.43;66.61
74081;SHT31;62438;52.228;6.864;2023-04-08T10:12:38;13.32;65.07
74081;SHT31;62438;52.228;6.864;2023-04-08T10:14:39;12.99;67.03
74081;SHT31;62438;52.228;6.864;2023-04-08T10:16:39;12.75;67.55
74081;SHT31;62438;52.228;6.864;2023-04-08T10:18:40;13.08;67.68
74081;SHT31;62438;52.228;6.864;2023-04-08T10:20:42;12.77;67.10
74081;SHT31;62438;52.228;6.864;2023-04-08T10:22:47;13.16;66.17
74081;SHT31;62438;52.228;6.864;2023-04-08T10:27:38;13.82;64.42
74081;SHT31;62438;52.228;6.864;2023-04-08T10:29:41;13.24;64.99
74081;SHT31;62438;52.228;6.864;2023-04-08T10:31:45;14.04;64.16
74081;SHT31;62438;52.228;6.864;2023-04-08T10:33:46;13.40;64.15
74081;SHT31;62438;52.228;6.864;2023-04-08T10:35:49;13.09;65.95
74081;SHT31;62438;52.228;6.864;2023-04-08T10:37:52;12.94;65.80
74081;SHT31;62438;52.228;6.864;2023-04-08T10:39:53;12.61;68.27
74081;SHT31;62438;52.228;6.864;2023-04-08T10:41:54;12.07;68.94
74081;SHT31;62438;52.228;6.864;2023-04-08T10:43:55;12.07;68.69
74081;SHT31;62438;52.228;6.864;2023-04-08T10:45:55;12.99;67.07
74081;SHT31;62438;52.228;6.864;2023-04-08T10:47:56;13.30;65.89
74081;SHT31;62438;52.228;6.864;2023-04-08T10:49:56;14.01;66.12
74081;SHT31;62438;52.228;6.864;2023-04-08T10:51:57;14.19;64.90
74081;SHT31;62438;52.228;6.864;2023-04-08T10:54:09;14.80;64.15
74081;SHT31;62438;52.228;6.864;2023-04-08T10:56:12;14.50;60.89
74081;SHT31;62438;52.228;6.864;2023-04-08T10:58:15;14.46;63.58
74081;SHT31;62438;52.228;6.864;2023-04-08T11:00:31;14.80;62.55
74081;SHT31;62438;52.228;6.864;2023-04-08T11:02:32;14.50;60.64
74081;SHT31;62438;52.228;6.864;2023-04-08T11:04:33;13.49;62.87
74081;SHT31;62438;52.228;6.864;2023-04-08T11:06:44;13.60;66.42
74081;SHT31;62438;52.228;6.864;2023-04-08T11:08:46;13.91;65.50
74081;SHT31;62438;52.228;6.864;2023-04-08T11:10:47;13.67;64.63
74081;SHT31;62438;52.228;6.864;2023-04-08T11:12:48;13.80;64.23
74081;SHT31;62438;52.228;6.864;2023-04-08T11:14:49;13.40;65.62
74081;SHT31;62438;52.228;6.864;2023-04-08T11:16:51;13.70;65.18
74081;SHT31;62438;52.228;6.864;2023-04-08T11:18:52;14.02;65.51
74081;SHT31;62438;52.228;6.864;2023-04-08T11:20:53;13.98;64.40
74081;SHT31;62438;52.228;6.864;2023-04-08T11:22:54;13.66;65.85
74081;SHT31;62438;52.228;6.864;2023-04-08T11:24:57;13.23;66.17
74081;SHT31;62438;52.228;6.864;2023-04-08T11:26:57;13.66;66.94
74081;SHT31;62438;52.228;6.864;2023-04-08T11:28:58;13.43;67.26
74081;SHT31;62438;52.228;6.864;2023-04-08T11:31:00;13.32;67.34
74081;SHT31;62438;52.228;6.864;2023-04-08T11:33:03;13.35;68.18
74081;SHT31;62438;52.228;6.864;2023-04-08T11:35:04;13.78;66.68
74081;SHT31;62438;52.228;6.864;2023-04-08T11:37:04;13.54;65.54
74081;SHT31;62438;52.228;6.864;2023-04-08T11:39:08;13.66;67.22
74081;SHT31;62438;52.228;6.864;2023-04-08T11:41:09;13.06;67.98
74081;SHT31;62438;52.228;6.864;2023-04-08T11:43:12;13.59;67.69
74081;SHT31;62438;52.228;6.864;2023-04-08T11:45:18;13.33;68.40
74081;SHT31;62438;52.228;6.864;2023-04-08T11:47:19;13.27;67.99
74081;SHT31;62438;52.228;6.864;2023-04-08T11:49:19;12.94;69.11
74081;SHT31;62438;52.228;6.864;2023-04-08T11:51:19;13.23;68.74
74081;SHT31;62438;52.228;6.864;2023-04-08T11:53:21;13.39;70.19
74081;SHT31;62438;52.228;6.864;2023-04-08T11:55:28;13.50;69.83
74081;SHT31;62438;52.228;6.864;2023-04-08T11:57:29;13.73;70.64
74081;SHT31;62438;52.228;6.864;2023-04-08T11:59:31;13.24;69.76
74081;SHT31;62438;52.228;6.864;2023-04-08T12:01:32;13.13;69.73
74081;SHT31;62438;52.228;6.864;2023-04-08T12:03:33;13.22;70.16
74081;SHT31;62438;52.228;6.864;2023-04-08T12:05:33;12.99;69.48
74081;SHT31;62438;52.228;6.864;2023-04-08T12:07:34;13.03;70.13
74081;SHT31;62438;52.228;6.864;2023-04-08T12:09:34;12.95;69.43
74081;SHT31;62438;52.228;6.864;2023-04-08T12:11:34;13.40;70.41
74081;SHT31;62438;52.228;6.864;2023-04-08T12:13:35;13.02;68.72
74081;SHT31;62438;52.228;6.864;2023-04-08T12:15:35;13.05;71.08
74081;SHT31;62438;52.228;6.864;2023-04-08T12:17:36;12.84;71.77
74081;SHT31;62438;52.228;6.864;2023-04-08T12:19:37;13.23;69.62
74081;SHT31;62438;52.228;6.864;2023-04-08T12:21:38;13.73;69.17
74081;SHT31;62438;52.228;6.864;2023-04-08T12:23:38;13.16;69.65
74081;SHT31;62438;52.228;6.864;2023-04-08T12:25:38;13.33;70.47
74081;SHT31;62438;52.228;6.864;2023-04-08T12:27:39;12.67;70.89
74081;SHT31;62438;52.228;6.864;2023-04-08T12:29:40;12.50;71.44
74081;SHT31;62438;52.228;6.864;2023-04-08T12:31:40;12.57;73.17
74081;SHT31;62438;52.228;6.864;2023-04-08T12:33:41;12.48;72.80
74081;SHT31;62438;52.228;6.864;2023-04-08T12:35:41;12.71;72.52
74081;SHT31;62438;52.228;6.864;2023-04-08T12:37:42;13.05;71.88
74081;SHT31;62438;52.228;6.864;2023-04-08T12:39:43;13.08;71.50
74081;SHT31;62438;52.228;6.864;2023-04-08T12:41:43;13.24;71.08
74081;SHT31;62438;52.228;6.864;2023-04-08T12:43:43;13.20;70.56
74081;SHT31;62438;52.228;6.864;2023-04-08T12:45:44;13.38;71.62
74081;SHT31;62438;52.228;6.864;2023-04-08T12:47:44;13.13;70.92
74081;SHT31;62438;52.228;6.864;2023-04-08T12:49:45;13.40;72.11
74081;SHT31;62438;52.228;6.864;2023-04-08T12:51:45;12.96;70.69
74081;SHT31;62438;52.228;6.864;2023-04-08T12:53:45;12.98;71.26
74081;SHT31;62438;52.228;6.864;2023-04-08T12:55:46;12.71;71.83
74081;SHT31;62438;52.228;6.864;2023-04-08T12:57:47;12.73;72.16
74081;SHT31;62438;52.228;6.864;2023-04-08T12:59:48;12.75;73.45
74081;SHT31;62438;52.228;6.864;2023-04-08T13:01:48;12.80;73.25
74081;SHT31;62438;52.228;6.864;2023-04-08T13:03:49;13.01;73.04
74081;SHT31;62438;52.228;6.864;2023-04-08T13:05:50;12.94;72.91
74081;SHT31;62438;52.228;6.864;2023-04-08T13:07:51;12.64;72.03